Time;durP1;ratioP1;P1;durP2;ratioP2;P2;SDS_P1;SDS_P2;PMS_P1;PMS_P2;Temp;Humidity;BMP_temperature;BMP_pressure;BME280_temperature;BME280_humidity;BME280_pressure;Samples;Min_cycle;Max_cycle;Signal;HPM_P1;HPM_P2
2022/10/23 00:00:11;;;;;;;59.92;37.25;;;;;;;;;;6169697;28;20446;-74
2022/10/23 00:03:11;;;;;;;54.73;34.93;;;;;;;;;;6166337;28;20026;-74
2022/10/23 00:06:12;;;;;;;55.95;36.97;;;;;;;;;;6166442;28;20049;-74
2022/10/23 00:09:14;;;;;;;66.13;38.10;;;;;;;;;;6173964;28;20058;-74
2022/10/23 00:12:15;;;;;;;61.13;37.75;;;;;;;;;;6173160;28;20107;-74
2022/10/23 00:15:16;;;;;;;62.08;37.53;;;;;;;;;;6172966;28;20052;-74
2022/10/23 00:18:16;;;;;;;59.42;36.50;;;;;;;;;;6174257;28;20026;-74
2022/10/23 00:21:17;;;;;;;64.33;36.93;;;;;;;;;;6174359;28;20375;-74
2022/10/23 00:24:17;;;;;;;68.30;39.97;;;;;;;;;;6174068;28;20090;-74
2022/10/23 00:27:17;;;;;;;62.50;39.63;;;;;;;;;;6175617;28;20018;-74
2022/10/23 00:30:18;;;;;;;58.60;36.70;;;;;;;;;;6155758;28;20066;-74
2022/10/23 00:33:18;;;;;;;66.23;38.00;;;;;;;;;;6155500;28;20048;-74
2022/10/23 00:36:19;;;;;;;64.17;37.23;;;;;;;;;;6173057;28;20031;-74
2022/10/23 00:39:19;;;;;;;64.35;39.78;;;;;;;;;;6173224;28;20090;-74
2022/10/23 00:42:20;;;;;;;65.67;41.97;;;;;;;;;;6172294;28;20552;-74
2022/10/23 00:45:25;;;;;;;58.40;37.73;;;;;;;;;;6155682;28;20053;-75
2022/10/23 00:48:26;;;;;;;56.72;37.08;;;;;;;;;;6157292;28;20023;-74
2022/10/23 00:51:30;;;;;;;57.45;37.38;;;;;;;;;;6166037;28;20011;-74
2022/10/23 00:54:32;;;;;;;61.85;38.60;;;;;;;;;;6165450;28;20051;-74
2022/10/23 00:57:33;;;;;;;69.75;39.85;;;;;;;;;;6166835;28;20015;-74
2022/10/23 01:00:41;;;;;;;55.07;37.43;;;;;;;;;;6173135;28;20050;-74
2022/10/23 01:03:41;;;;;;;59.60;35.20;;;;;;;;;;6165685;28;20491;-74
2022/10/23 01:06:48;;;;;;;66.90;35.72;;;;;;;;;;6173444;28;20256;-74
2022/10/23 01:10:07;;;;;;;62.05;39.17;;;;;;;;;;6157936;28;20385;-74
2022/10/23 01:13:11;;;;;;;59.72;37.38;;;;;;;;;;6158325;28;20037;-75
2022/10/23 01:16:22;;;;;;;59.47;36.60;;;;;;;;;;6174051;28;20288;-74
2022/10/23 01:19:25;;;;;;;62.42;36.55;;;;;;;;;;6153861;28;20531;-74
2022/10/23 01:22:38;;;;;;;52.20;32.35;;;;;;;;;;6164461;28;20590;-74
2022/10/23 01:25:44;;;;;;;54.47;33.00;;;;;;;;;;6172513;28;20011;-74
2022/10/23 01:28:48;;;;;;;49.15;34.60;;;;;;;;;;6159594;28;20061;-74
2022/10/23 01:31:56;;;;;;;51.95;32.03;;;;;;;;;;6152387;28;20018;-74
2022/10/23 01:35:02;;;;;;;59.38;37.00;;;;;;;;;;6154007;28;20440;-74
2022/10/23 01:38:05;;;;;;;53.83;34.28;;;;;;;;;;6171677;28;20117;-74
2022/10/23 01:41:23;;;;;;;58.50;34.67;;;;;;;;;;6169990;28;20210;-74
2022/10/23 01:44:23;;;;;;;53.53;33.70;;;;;;;;;;6154217;28;20069;-74
2022/10/23 01:47:25;;;;;;;57.45;35.67;;;;;;;;;;6172163;28;20054;-74
2022/10/23 01:50:26;;;;;;;53.35;31.45;;;;;;;;;;6153566;28;20015;-74
2022/10/23 01:53:29;;;;;;;54.93;34.07;;;;;;;;;;6170271;28;20061;-74
2022/10/23 01:56:34;;;;;;;58.83;35.33;;;;;;;;;;6154232;28;20925;-74
2022/10/23 01:59:37;;;;;;;52.50;31.55;;;;;;;;;;6166780;28;20402;-74
2022/10/23 02:02:39;;;;;;;54.38;31.95;;;;;;;;;;6170750;28;20022;-74
2022/10/23 02:05:39;;;;;;;53.22;32.25;;;;;;;;;;6146027;28;20071;-74
2022/10/23 02:08:39;;;;;;;57.87;31.63;;;;;;;;;;6148370;29;20045;-74
2022/10/23 02:11:47;;;;;;;59.47;34.00;;;;;;;;;;6147390;28;20070;-74
2022/10/23 02:14:52;;;;;;;54.85;32.13;;;;;;;;;;6141727;29;20024;-74
2022/10/23 02:17:52;;;;;;;59.72;35.95;;;;;;;;;;6135040;28;20457;-74
2022/10/23 02:20:54;;;;;;;58.78;35.90;;;;;;;;;;6135870;28;20024;-74
2022/10/23 02:24:01;;;;;;;56.28;36.15;;;;;;;;;;6149298;28;20026;-74
2022/10/23 02:27:02;;;;;;;62.60;35.50;;;;;;;;;;6151853;28;20035;-74
2022/10/23 02:30:07;;;;;;;54.10;32.17;;;;;;;;;;6151640;28;20031;-74
2022/10/23 02:33:07;;;;;;;58.50;33.10;;;;;;;;;;6152189;28;20368;-74
2022/10/23 02:36:08;;;;;;;49.40;32.33;;;;;;;;;;6151059;28;20039;-74
2022/10/23 02:39:08;;;;;;;60.30;33.20;;;;;;;;;;6163924;28;20019;-74
2022/10/23 02:42:19;;;;;;;54.53;30.77;;;;;;;;;;6146107;28;20106;-74
2022/10/23 02:45:30;;;;;;;51.95;31.48;;;;;;;;;;6151178;29;20410;-74
2022/10/23 02:48:41;;;;;;;58.33;34.80;;;;;;;;;;6150613;28;20015;-74
2022/10/23 02:51:44;;;;;;;54.85;34.83;;;;;;;;;;6150392;28;20034;-74
2022/10/23 02:54:51;;;;;;;51.50;30.00;;;;;;;;;;6153795;28;20051;-74
2022/10/23 02:58:12;;;;;;;51.35;30.50;;;;;;;;;;6150512;28;20031;-74
2022/10/23 03:01:14;;;;;;;50.25;30.30;;;;;;;;;;6151051;28;20507;-74
2022/10/23 03:04:16;;;;;;;48.85;30.08;;;;;;;;;;6153083;28;20015;-74
2022/10/23 03:07:18;;;;;;;55.13;32.50;;;;;;;;;;6146946;28;20130;-74
2022/10/23 03:10:18;;;;;;;47.13;28.13;;;;;;;;;;6138194;29;20082;-75
2022/10/23 03:13:18;;;;;;;47.93;28.73;;;;;;;;;;6141385;28;20031;-74
2022/10/23 03:16:18;;;;;;;51.08;28.95;;;;;;;;;;6146304;28;20238;-74
2022/10/23 03:19:19;;;;;;;50.27;31.60;;;;;;;;;;6152061;28;20046;-74
2022/10/23 03:22:19;;;;;;;43.47;28.37;;;;;;;;;;6161007;28;20098;-74
2022/10/23 03:25:19;;;;;;;48.54;30.76;;;;;;;;;;6160877;28;20015;-74
2022/10/23 03:28:19;;;;;;;48.13;28.93;;;;;;;;;;6141940;29;20498;-74
2022/10/23 03:31:20;;;;;;;47.17;29.85;;;;;;;;;;6148931;29;20106;-74
2022/10/23 03:34:20;;;;;;;48.17;28.43;;;;;;;;;;6137222;29;20263;-74
2022/10/23 03:37:20;;;;;;;49.73;28.30;;;;;;;;;;6134889;28;20032;-74
2022/10/23 03:40:21;;;;;;;53.50;27.60;;;;;;;;;;6137293;28;20019;-74
2022/10/23 03:43:21;;;;;;;41.37;26.30;;;;;;;;;;6145760;28;20016;-75
2022/10/23 03:46:21;;;;;;;43.60;27.15;;;;;;;;;;6141731;28;20054;-74
2022/10/23 03:49:21;;;;;;;50.20;29.33;;;;;;;;;;6165287;28;20402;-74
2022/10/23 03:52:22;;;;;;;40.70;25.80;;;;;;;;;;6149210;28;20054;-74
2022/10/23 03:55:24;;;;;;;43.00;25.87;;;;;;;;;;6164938;28;20114;-74
2022/10/23 03:58:24;;;;;;;51.50;29.38;;;;;;;;;;6150016;28;20007;-75
2022/10/23 04:01:25;;;;;;;52.30;29.97;;;;;;;;;;6149939;28;20387;-74
2022/10/23 04:04:25;;;;;;;44.10;27.83;;;;;;;;;;6162600;28;20027;-75
2022/10/23 04:07:25;;;;;;;57.43;30.07;;;;;;;;;;6171681;28;20057;-74
2022/10/23 04:10:25;;;;;;;46.20;28.10;;;;;;;;;;6152113;28;20102;-74
2022/10/23 04:13:25;;;;;;;49.70;28.67;;;;;;;;;;6186248;28;20022;-74
2022/10/23 04:16:26;;;;;;;51.78;29.88;;;;;;;;;;6173856;28;20031;-74
2022/10/23 04:19:26;;;;;;;50.43;28.03;;;;;;;;;;6173479;28;20022;-75
2022/10/23 04:22:26;;;;;;;46.93;27.63;;;;;;;;;;6173148;28;20443;-75
2022/10/23 04:25:26;;;;;;;48.30;30.00;;;;;;;;;;6173643;28;20106;-74
2022/10/23 04:28:27;;;;;;;53.03;30.83;;;;;;;;;;6181561;28;20022;-74
2022/10/23 04:31:27;;;;;;;61.40;31.43;;;;;;;;;;6154959;28;20354;-74
2022/10/23 04:34:27;;;;;;;56.27;29.13;;;;;;;;;;6166570;28;20151;-74
2022/10/23 04:37:27;;;;;;;44.92;25.83;;;;;;;;;;6169041;28;20023;-74
2022/10/23 04:40:27;;;;;;;48.80;29.70;;;;;;;;;;6169258;28;20126;-74
2022/10/23 04:43:28;;;;;;;49.67;28.30;;;;;;;;;;6164840;28;20062;-74
2022/10/23 04:46:28;;;;;;;49.70;28.53;;;;;;;;;;6167025;28;20011;-74
2022/10/23 04:49:28;;;;;;;51.92;29.33;;;;;;;;;;6166823;28;20019;-74
2022/10/23 04:52:28;;;;;;;48.72;28.60;;;;;;;;;;6162801;28;20031;-74
2022/10/23 04:55:28;;;;;;;54.17;31.83;;;;;;;;;;6170228;28;20478;-74
2022/10/23 04:58:28;;;;;;;52.33;29.02;;;;;;;;;;6162026;28;20023;-74
2022/10/23 05:01:29;;;;;;;54.10;28.50;;;;;;;;;;6169650;28;20481;-74
2022/10/23 05:04:29;;;;;;;45.65;28.80;;;;;;;;;;6169644;28;20510;-74
2022/10/23 05:07:29;;;;;;;46.33;25.83;;;;;;;;;;6160682;28;20078;-74
2022/10/23 05:10:30;;;;;;;54.37;28.77;;;;;;;;;;6166832;28;20019;-74
2022/10/23 05:13:30;;;;;;;52.57;27.67;;;;;;;;;;6156355;28;20022;-74
2022/10/23 05:16:38;;;;;;;56.00;28.13;;;;;;;;;;6168152;28;20034;-74
2022/10/23 05:19:42;;;;;;;52.20;29.13;;;;;;;;;;6168435;28;20019;-74
2022/10/23 05:22:43;;;;;;;49.17;25.45;;;;;;;;;;6170339;28;20022;-74
2022/10/23 05:25:43;;;;;;;48.63;25.88;;;;;;;;;;6169955;28;20023;-74
2022/10/23 05:28:43;;;;;;;45.43;25.60;;;;;;;;;;6150187;28;20031;-74
2022/10/23 05:31:44;;;;;;;45.73;25.73;;;;;;;;;;6155761;28;20097;-74
2022/10/23 05:34:44;;;;;;;56.50;30.00;;;;;;;;;;6143415;28;20446;-74
2022/10/23 05:37:46;;;;;;;45.42;27.13;;;;;;;;;;6171840;28;20019;-74
2022/10/23 05:40:46;;;;;;;48.45;27.75;;;;;;;;;;6161037;28;20010;-74
2022/10/23 05:43:46;;;;;;;50.67;28.05;;;;;;;;;;6165748;28;20402;-74
2022/10/23 05:46:46;;;;;;;45.77;26.37;;;;;;;;;;6163776;28;20027;-74
2022/10/23 05:49:47;;;;;;;47.93;27.27;;;;;;;;;;6163917;28;20077;-74
2022/10/23 05:52:47;;;;;;;52.97;29.48;;;;;;;;;;6172178;28;20370;-74
2022/10/23 05:55:47;;;;;;;52.10;30.40;;;;;;;;;;6163697;28;20027;-74
2022/10/23 05:58:47;;;;;;;50.50;26.90;;;;;;;;;;6170994;28;20037;-74
2022/10/23 06:01:48;;;;;;;47.53;26.63;;;;;;;;;;6176380;28;20498;-74
2022/10/23 06:04:48;;;;;;;61.93;32.60;;;;;;;;;;6148885;28;20047;-74
2022/10/23 06:07:48;;;;;;;56.42;31.00;;;;;;;;;;6159014;28;20132;-74
2022/10/23 06:10:48;;;;;;;61.03;31.77;;;;;;;;;;6174498;28;20022;-74
2022/10/23 06:13:48;;;;;;;55.57;29.30;;;;;;;;;;6175702;28;20031;-74
2022/10/23 06:16:49;;;;;;;51.65;31.70;;;;;;;;;;6158885;28;20031;-74
2022/10/23 06:19:49;;;;;;;54.47;30.33;;;;;;;;;;6159026;28;20023;-74
2022/10/23 06:22:49;;;;;;;56.27;30.47;;;;;;;;;;6158561;28;20033;-74
2022/10/23 06:25:53;;;;;;;56.97;31.55;;;;;;;;;;6176920;28;20015;-74
2022/10/23 06:28:54;;;;;;;59.92;29.42;;;;;;;;;;6160457;28;20038;-74
2022/10/23 06:31:54;;;;;;;54.87;31.00;;;;;;;;;;6177759;28;20376;-74
2022/10/23 06:34:54;;;;;;;58.55;32.40;;;;;;;;;;6158700;28;20054;-74
2022/10/23 06:37:54;;;;;;;49.03;28.08;;;;;;;;;;6176744;28;20378;-74
2022/10/23 06:40:55;;;;;;;52.88;31.25;;;;;;;;;;6176540;28;20014;-74
2022/10/23 06:43:55;;;;;;;51.90;32.97;;;;;;;;;;6150485;29;20027;-73
2022/10/23 06:46:55;;;;;;;51.60;30.80;;;;;;;;;;6160915;28;20027;-74
2022/10/23 06:49:56;;;;;;;53.55;34.08;;;;;;;;;;6143903;28;20019;-74
2022/10/23 06:52:56;;;;;;;52.57;30.90;;;;;;;;;;6162711;28;20094;-74
2022/10/23 06:56:00;;;;;;;62.47;32.63;;;;;;;;;;6163235;28;20086;-74
2022/10/23 06:59:00;;;;;;;51.83;31.95;;;;;;;;;;6143039;28;20045;-74
2022/10/23 07:02:00;;;;;;;51.47;31.43;;;;;;;;;;6156156;28;20494;-74
2022/10/23 07:05:00;;;;;;;54.00;30.47;;;;;;;;;;6166313;28;20039;-74
2022/10/23 07:08:03;;;;;;;43.87;27.70;;;;;;;;;;6151023;28;20039;-74
2022/10/23 07:11:04;;;;;;;51.53;29.27;;;;;;;;;;6168407;28;20058;-74
2022/10/23 07:14:04;;;;;;;47.70;27.95;;;;;;;;;;6167558;28;20038;-74
2022/10/23 07:17:04;;;;;;;49.58;28.52;;;;;;;;;;6155586;28;20050;-75
2022/10/23 07:20:05;;;;;;;54.63;29.27;;;;;;;;;;6163573;28;20046;-74
2022/10/23 07:23:05;;;;;;;59.07;32.20;;;;;;;;;;6173711;28;20426;-75
2022/10/23 07:26:07;;;;;;;60.13;36.03;;;;;;;;;;6160216;28;20035;-74
2022/10/23 07:29:07;;;;;;;61.15;35.53;;;;;;;;;;6155277;28;20459;-74
2022/10/23 07:32:08;;;;;;;54.43;35.10;;;;;;;;;;6163935;28;20034;-73
2022/10/23 07:35:09;;;;;;;49.50;30.37;;;;;;;;;;6171438;28;20026;-75
2022/10/23 07:38:09;;;;;;;52.63;32.00;;;;;;;;;;6158210;28;20034;-73
2022/10/23 07:41:10;;;;;;;47.20;29.37;;;;;;;;;;6171411;28;20045;-74
2022/10/23 07:44:10;;;;;;;43.37;25.20;;;;;;;;;;6163437;28;20069;-74
2022/10/23 07:47:10;;;;;;;39.30;24.80;;;;;;;;;;6164605;28;20518;-74
2022/10/23 07:50:10;;;;;;;47.50;27.13;;;;;;;;;;6166504;28;20027;-73
2022/10/23 07:53:16;;;;;;;37.70;24.80;;;;;;;;;;6160460;28;20030;-74
2022/10/23 07:56:21;;;;;;;36.60;24.10;;;;;;;;;;6160773;28;20023;-74
2022/10/23 07:59:21;;;;;;;43.17;27.52;;;;;;;;;;6166425;28;20043;-73
2022/10/23 08:02:21;;;;;;;40.67;23.10;;;;;;;;;;6153132;28;20515;-73
2022/10/23 08:05:21;;;;;;;42.17;24.67;;;;;;;;;;6149386;28;20398;-74
2022/10/23 08:08:22;;;;;;;35.70;20.87;;;;;;;;;;6167563;28;20033;-74
2022/10/23 08:11:26;;;;;;;35.10;21.60;;;;;;;;;;6158059;28;20077;-74
2022/10/23 08:14:26;;;;;;;27.55;15.48;;;;;;;;;;6173561;28;20082;-74
2022/10/23 08:17:27;;;;;;;27.70;18.63;;;;;;;;;;6153303;28;20027;-74
2022/10/23 08:20:27;;;;;;;28.92;16.40;;;;;;;;;;6163598;28;20019;-73
2022/10/23 08:23:28;;;;;;;27.70;18.37;;;;;;;;;;6175205;28;20387;-73
2022/10/23 08:26:28;;;;;;;28.13;17.37;;;;;;;;;;6174543;28;20085;-73
2022/10/23 08:29:28;;;;;;;30.53;17.07;;;;;;;;;;6173917;28;20030;-72
2022/10/23 08:32:29;;;;;;;27.80;18.90;;;;;;;;;;6174315;28;20112;-73
2022/10/23 08:35:29;;;;;;;31.00;16.97;;;;;;;;;;6170379;28;20587;-72
2022/10/23 08:38:29;;;;;;;22.40;16.23;;;;;;;;;;6166102;28;20030;-73
2022/10/23 08:41:31;;;;;;;26.90;15.80;;;;;;;;;;6165824;28;20072;-73
2022/10/23 08:44:37;;;;;;;26.23;15.02;;;;;;;;;;6172164;28;20030;-73
2022/10/23 08:47:39;;;;;;;26.65;16.13;;;;;;;;;;6162588;28;20486;-74
2022/10/23 08:50:41;;;;;;;26.45;16.45;;;;;;;;;;6165317;28;20471;-73
2022/10/23 08:53:41;;;;;;;;;;;;;;;;;;6153401;28;20433;-73
2022/10/23 08:56:43;;;;;;;24.80;15.25;;;;;;;;;;6166156;28;20382;-73
2022/10/23 08:59:43;;;;;;;;;;;;;;;;;;6143608;28;20063;-73
2022/10/23 09:02:45;;;;;;;22.15;15.15;;;;;;;;;;6161337;28;19910;-73
2022/10/23 09:05:54;;;;;;;22.52;14.15;;;;;;;;;;6156738;28;20137;-73
2022/10/23 09:09:06;;;;;;;21.02;14.35;;;;;;;;;;6171445;28;20487;-74
2022/10/23 09:12:10;;;;;;;24.02;14.32;;;;;;;;;;6165870;28;20481;-73
2022/10/23 09:15:30;;;;;;;23.48;13.85;;;;;;;;;;6170215;28;20038;-73
2022/10/23 09:18:31;;;;;;;23.25;13.60;;;;;;;;;;6157980;28;20483;-73
2022/10/23 09:21:31;;;;;;;20.63;13.33;;;;;;;;;;6165541;28;20023;-73
2022/10/23 09:24:32;;;;;;;19.57;13.07;;;;;;;;;;6154650;28;20015;-73
2022/10/23 09:27:32;;;;;;;21.80;13.90;;;;;;;;;;6170849;28;20018;-73
2022/10/23 09:30:34;;;;;;;19.20;12.83;;;;;;;;;;6155429;28;20031;-74
2022/10/23 09:33:36;;;;;;;18.27;12.57;;;;;;;;;;6162246;28;20038;-74
2022/10/23 09:36:47;;;;;;;19.15;12.80;;;;;;;;;;6154005;28;20027;-74
2022/10/23 09:39:47;;;;;;;21.65;13.27;;;;;;;;;;6154278;28;20023;-73
2022/10/23 09:42:58;;;;;;;19.93;11.10;;;;;;;;;;6160683;28;20406;-73
2022/10/23 09:46:03;;;;;;;24.50;16.77;;;;;;;;;;6156178;28;20027;-73
2022/10/23 09:49:04;;;;;;;25.15;14.23;;;;;;;;;;6150916;28;20027;-74
2022/10/23 09:52:05;;;;;;;25.90;14.23;;;;;;;;;;6166373;28;20098;-73
2022/10/23 09:55:23;;;;;;;21.63;14.48;;;;;;;;;;6166814;28;20022;-74
2022/10/23 09:58:28;;;;;;;25.83;12.10;;;;;;;;;;6160495;28;20046;-73
2022/10/23 10:01:32;;;;;;;20.42;13.43;;;;;;;;;;6163524;28;20026;-73
2022/10/23 10:04:37;;;;;;;22.13;13.52;;;;;;;;;;6148516;28;20011;-73
2022/10/23 10:07:37;;;;;;;23.15;14.18;;;;;;;;;;6140247;28;20118;-73
2022/10/23 10:10:44;;;;;;;26.33;15.10;;;;;;;;;;6134583;29;20396;-73
2022/10/23 10:13:59;;;;;;;30.17;16.85;;;;;;;;;;6141671;28;20051;-74
2022/10/23 10:17:03;;;;;;;25.08;14.90;;;;;;;;;;6144018;28;20487;-73
2022/10/23 10:20:03;;;;;;;25.02;16.00;;;;;;;;;;6144635;28;20123;-73
2022/10/23 10:23:19;;;;;;;23.40;14.80;;;;;;;;;;6144101;28;20015;-73
2022/10/23 10:26:20;;;;;;;23.80;16.05;;;;;;;;;;6146496;28;20050;-73
2022/10/23 10:29:28;;;;;;;26.43;15.80;;;;;;;;;;6143376;28;20533;-73
2022/10/23 10:32:42;;;;;;;26.90;17.58;;;;;;;;;;6148245;28;20086;-73
2022/10/23 10:35:45;;;;;;;26.50;16.92;;;;;;;;;;6151742;28;20086;-73
2022/10/23 10:38:48;;;;;;;28.35;18.38;;;;;;;;;;6146515;28;20015;-74
2022/10/23 10:42:03;;;;;;;37.00;21.67;;;;;;;;;;6143029;29;20365;-74
2022/10/23 10:45:06;;;;;;;25.92;16.63;;;;;;;;;;6139056;28;20015;-74
2022/10/23 10:48:15;;;;;;;28.48;18.38;;;;;;;;;;6145871;28;20031;-74
2022/10/23 10:51:34;;;;;;;30.40;18.92;;;;;;;;;;6147002;28;20027;-74
2022/10/23 10:54:34;;;;;;;27.48;18.25;;;;;;;;;;6154959;28;20023;-74
2022/10/23 10:57:46;;;;;;;25.00;18.00;;;;;;;;;;6151209;28;20078;-74
2022/10/23 11:00:50;;;;;;;25.58;17.98;;;;;;;;;;6150534;28;20015;-74
2022/10/23 11:03:56;;;;;;;26.67;17.80;;;;;;;;;;6137578;28;20086;-73
2022/10/23 11:06:57;;;;;;;24.67;16.30;;;;;;;;;;6166386;28;20053;-74
2022/10/23 11:09:57;;;;;;;17.50;12.30;;;;;;;;;;6152660;28;20063;-73
2022/10/23 11:12:58;;;;;;;20.87;13.40;;;;;;;;;;6154937;28;20326;-73
2022/10/23 11:16:16;;;;;;;19.60;13.40;;;;;;;;;;6173087;28;20037;-74
2022/10/23 11:19:19;;;;;;;22.83;13.70;;;;;;;;;;6171861;28;20478;-74
2022/10/23 11:22:22;;;;;;;19.08;13.48;;;;;;;;;;6157539;28;20029;-74
2022/10/23 11:25:42;;;;;;;17.48;10.15;;;;;;;;;;6167140;28;20027;-73
2022/10/23 11:28:42;;;;;;;19.63;9.43;;;;;;;;;;6164485;28;20386;-73
2022/10/23 11:32:01;;;;;;;14.50;9.13;;;;;;;;;;6160507;28;20386;-74
2022/10/23 11:35:22;;;;;;;14.35;9.55;;;;;;;;;;6154774;28;20031;-75
2022/10/23 11:38:25;;;;;;;17.00;8.57;;;;;;;;;;6162340;28;20050;-73
2022/10/23 11:41:28;;;;;;;11.73;6.20;;;;;;;;;;6158196;28;20051;-73
2022/10/23 11:44:40;;;;;;;11.15;6.40;;;;;;;;;;6149996;28;20314;-73
2022/10/23 11:47:41;;;;;;;9.90;6.20;;;;;;;;;;6169357;28;20026;-74
2022/10/23 11:50:45;;;;;;;11.32;5.13;;;;;;;;;;6156972;28;20035;-74
2022/10/23 11:53:45;;;;;;;8.45;4.70;;;;;;;;;;6142843;28;20034;-74
2022/10/23 11:56:51;;;;;;;9.40;4.93;;;;;;;;;;6170906;28;20024;-74
2022/10/23 11:59:53;;;;;;;7.15;4.35;;;;;;;;;;6150651;28;20114;-73
2022/10/23 12:02:53;;;;;;;8.93;4.70;;;;;;;;;;6157368;28;20026;-74
2022/10/23 12:05:58;;;;;;;7.27;4.50;;;;;;;;;;6165091;28;20047;-74
2022/10/23 12:09:01;;;;;;;8.20;5.28;;;;;;;;;;6138845;28;20066;-74
2022/10/23 12:12:03;;;;;;;8.55;4.85;;;;;;;;;;6137213;28;20545;-73
2022/10/23 12:15:10;;;;;;;8.57;4.82;;;;;;;;;;6157632;28;20023;-74
2022/10/23 12:18:14;;;;;;;10.25;5.15;;;;;;;;;;6151109;28;20122;-73
2022/10/23 12:21:17;;;;;;;7.80;4.15;;;;;;;;;;6155500;28;20030;-73
2022/10/23 12:24:38;;;;;;;8.50;4.90;;;;;;;;;;6157329;28;20031;-74
2022/10/23 12:27:47;;;;;;;8.05;5.18;;;;;;;;;;6156957;28;20023;-73
2022/10/23 12:30:55;;;;;;;10.23;5.30;;;;;;;;;;6164772;28;20472;-74
2022/10/23 12:34:00;;;;;;;9.82;4.53;;;;;;;;;;6147658;28;20456;-74
2022/10/23 12:37:01;;;;;;;9.88;4.88;;;;;;;;;;6166566;28;20069;-74
2022/10/23 12:40:05;;;;;;;10.00;5.93;;;;;;;;;;6161217;28;20031;-73
2022/10/23 12:43:24;;;;;;;10.27;4.88;;;;;;;;;;6158203;28;20566;-73
2022/10/23 12:46:26;;;;;;;7.72;4.97;;;;;;;;;;6151871;28;20038;-73
2022/10/23 12:49:30;;;;;;;10.82;5.18;;;;;;;;;;6165534;28;20423;-74
2022/10/23 12:52:34;;;;;;;9.43;5.32;;;;;;;;;;6155009;28;20102;-73
2022/10/23 12:55:46;;;;;;;8.02;5.30;;;;;;;;;;6150709;28;20035;-73
2022/10/23 12:58:47;;;;;;;8.35;4.72;;;;;;;;;;6155984;28;20618;-74
2022/10/23 13:01:48;;;;;;;10.95;5.65;;;;;;;;;;6136294;28;20029;-73
2022/10/23 13:04:49;;;;;;;8.73;4.53;;;;;;;;;;6152265;28;20014;-73
2022/10/23 13:07:49;;;;;;;;;;;;;;;;;;6151832;28;20043;-73
2022/10/23 13:10:50;;;;;;;10.73;5.68;;;;;;;;;;6156603;28;19914;-73
2022/10/23 13:13:50;;;;;;;7.93;5.30;;;;;;;;;;6155967;28;20414;-74
2022/10/23 13:16:57;;;;;;;12.40;6.37;;;;;;;;;;6157259;28;20391;-74
2022/10/23 13:20:07;;;;;;;10.25;5.88;;;;;;;;;;6158442;28;20042;-74
2022/10/23 13:23:15;;;;;;;7.35;4.80;;;;;;;;;;6160224;28;20049;-73
2022/10/23 13:26:21;;;;;;;8.43;5.50;;;;;;;;;;6168592;28;20030;-74
2022/10/23 13:29:22;;;;;;;10.25;5.50;;;;;;;;;;6171965;28;20034;-73
2022/10/23 13:32:23;;;;;;;8.07;5.40;;;;;;;;;;6172337;28;20022;-73
2022/10/23 13:35:23;;;;;;;10.45;6.82;;;;;;;;;;6173335;28;20395;-73
2022/10/23 13:38:37;;;;;;;12.57;5.40;;;;;;;;;;6153811;28;20105;-73
2022/10/23 13:41:44;;;;;;;12.00;5.72;;;;;;;;;;6171229;28;20015;-74
2022/10/23 13:44:45;;;;;;;13.40;7.47;;;;;;;;;;6163129;28;20023;-75
2022/10/23 13:47:45;;;;;;;14.77;7.37;;;;;;;;;;6165018;28;20042;-74
2022/10/23 13:50:45;;;;;;;14.03;7.77;;;;;;;;;;6155917;28;20015;-73
2022/10/23 13:53:46;;;;;;;14.20;6.90;;;;;;;;;;6163978;28;20034;-74
2022/10/23 13:56:46;;;;;;;10.57;5.17;;;;;;;;;;6154606;28;20057;-73
2022/10/23 13:59:46;;;;;;;11.80;6.03;;;;;;;;;;6167951;28;20494;-74
2022/10/23 14:02:46;;;;;;;10.93;5.80;;;;;;;;;;6163614;28;20027;-73
2022/10/23 14:05:46;;;;;;;14.60;7.43;;;;;;;;;;6168265;28;20046;-74
2022/10/23 14:08:47;;;;;;;13.20;7.03;;;;;;;;;;6170138;28;20364;-74
2022/10/23 14:11:47;;;;;;;11.43;6.30;;;;;;;;;;6140133;28;20123;-74
2022/10/23 14:14:50;;;;;;;13.80;7.60;;;;;;;;;;6157099;28;20064;-74
2022/10/23 14:17:51;;;;;;;12.90;6.97;;;;;;;;;;6156412;28;20043;-73
2022/10/23 14:20:51;;;;;;;15.37;10.30;;;;;;;;;;6157274;28;20089;-73
2022/10/23 14:23:52;;;;;;;13.73;9.60;;;;;;;;;;6155894;28;20391;-73
2022/10/23 14:26:52;;;;;;;17.25;11.13;;;;;;;;;;6167382;28;20038;-73
2022/10/23 14:29:53;;;;;;;15.48;10.00;;;;;;;;;;6153725;28;20019;-73
2022/10/23 14:32:53;;;;;;;14.38;8.20;;;;;;;;;;6161352;28;20049;-73
2022/10/23 14:35:53;;;;;;;13.38;6.95;;;;;;;;;;6164600;28;20065;-74
2022/10/23 14:38:53;;;;;;;13.18;7.65;;;;;;;;;;6167432;28;20033;-74
2022/10/23 14:41:54;;;;;;;14.63;7.07;;;;;;;;;;6170007;28;20582;-74
2022/10/23 14:44:54;;;;;;;15.23;6.60;;;;;;;;;;6168406;28;20026;-73
2022/10/23 14:47:54;;;;;;;11.77;6.32;;;;;;;;;;6148953;28;20787;-73
2022/10/23 14:50:55;;;;;;;13.67;6.77;;;;;;;;;;6146816;28;20029;-73
2022/10/23 14:53:58;;;;;;;14.13;7.00;;;;;;;;;;6157797;28;20030;-73
2022/10/23 14:56:58;;;;;;;12.32;6.88;;;;;;;;;;6159680;28;20101;-74
2022/10/23 14:59:58;;;;;;;13.00;6.28;;;;;;;;;;6151902;28;20027;-73
2022/10/23 15:02:58;;;;;;;10.10;6.30;;;;;;;;;;6147949;28;20499;-73
2022/10/23 15:05:59;;;;;;;13.43;6.45;;;;;;;;;;6148868;28;20072;-74
2022/10/23 15:08:59;;;;;;;12.17;7.07;;;;;;;;;;6153242;28;20479;-74
2022/10/23 15:11:59;;;;;;;13.47;7.57;;;;;;;;;;6155816;28;20027;-75
2022/10/23 15:14:59;;;;;;;14.43;7.60;;;;;;;;;;6171620;28;20023;-75
2022/10/23 15:18:00;;;;;;;15.40;7.73;;;;;;;;;;6170715;28;20034;-75
2022/10/23 15:21:00;;;;;;;14.57;6.90;;;;;;;;;;6152349;28;20019;-75
2022/10/23 15:24:01;;;;;;;13.57;8.33;;;;;;;;;;6150410;28;20023;-74
2022/10/23 15:27:01;;;;;;;15.73;9.03;;;;;;;;;;6173103;28;20486;-73
2022/10/23 15:30:01;;;;;;;17.97;8.47;;;;;;;;;;6166871;28;20078;-73
2022/10/23 15:33:01;;;;;;;22.57;13.83;;;;;;;;;;6136916;28;20027;-73
2022/10/23 15:36:02;;;;;;;19.83;11.67;;;;;;;;;;6154086;28;20031;-72
2022/10/23 15:39:05;;;;;;;17.43;9.70;;;;;;;;;;6151919;28;20015;-72
2022/10/23 15:42:05;;;;;;;21.00;9.52;;;;;;;;;;6163362;28;20034;-73
2022/10/23 15:45:06;;;;;;;20.80;11.50;;;;;;;;;;6162617;28;20023;-73
2022/10/23 15:48:06;;;;;;;23.43;12.17;;;;;;;;;;6162068;28;20105;-73
2022/10/23 15:51:07;;;;;;;45.80;28.07;;;;;;;;;;6167042;28;20483;-74
2022/10/23 15:54:08;;;;;;;50.30;29.33;;;;;;;;;;6149633;28;20039;-73
2022/10/23 15:57:08;;;;;;;54.20;28.88;;;;;;;;;;6167712;28;20029;-74
2022/10/23 16:00:09;;;;;;;54.77;30.20;;;;;;;;;;6158815;28;20561;-73
2022/10/23 16:03:09;;;;;;;53.43;32.70;;;;;;;;;;6148912;28;20023;-73
2022/10/23 16:06:10;;;;;;;38.65;21.60;;;;;;;;;;6153011;28;20054;-74
2022/10/23 16:09:11;;;;;;;41.60;21.85;;;;;;;;;;6166055;28;20391;-74
2022/10/23 16:12:11;;;;;;;40.80;22.43;;;;;;;;;;6151890;28;20033;-74
2022/10/23 16:15:11;;;;;;;40.93;25.20;;;;;;;;;;6161286;28;20023;-74
2022/10/23 16:18:14;;;;;;;46.50;25.53;;;;;;;;;;6158264;28;20018;-74
2022/10/23 16:21:20;;;;;;;33.72;20.48;;;;;;;;;;6150721;28;20031;-75
2022/10/23 16:24:20;;;;;;;36.13;23.75;;;;;;;;;;6151358;28;20023;-74
2022/10/23 16:27:20;;;;;;;38.73;22.93;;;;;;;;;;6155681;28;20034;-74
2022/10/23 16:30:21;;;;;;;43.90;25.77;;;;;;;;;;6152392;28;20078;-74
2022/10/23 16:33:22;;;;;;;47.38;28.50;;;;;;;;;;6159251;28;20397;-74
2022/10/23 16:36:22;;;;;;;47.07;27.90;;;;;;;;;;6170424;28;20023;-75
2022/10/23 16:39:22;;;;;;;47.20;28.77;;;;;;;;;;6144080;28;20501;-74
2022/10/23 16:42:22;;;;;;;55.17;35.13;;;;;;;;;;6160786;28;20054;-75
2022/10/23 16:45:22;;;;;;;45.47;29.33;;;;;;;;;;6150410;28;20064;-74
2022/10/23 16:48:23;;;;;;;48.47;26.70;;;;;;;;;;6155449;28;20027;-74
2022/10/23 16:51:24;;;;;;;47.77;26.90;;;;;;;;;;6155732;28;20434;-73
2022/10/23 16:54:24;;;;;;;53.33;33.10;;;;;;;;;;6160474;28;20105;-74
2022/10/23 16:57:26;;;;;;;56.80;31.77;;;;;;;;;;6169338;28;20027;-75
2022/10/23 17:00:33;;;;;;;69.45;42.92;;;;;;;;;;6157100;28;20509;-74
2022/10/23 17:03:35;;;;;;;55.60;34.95;;;;;;;;;;6156146;28;20007;-75
2022/10/23 17:06:35;;;;;;;38.47;25.58;;;;;;;;;;6155325;28;20053;-74
2022/10/23 17:09:37;;;;;;;37.77;24.00;;;;;;;;;;6142723;28;20031;-74
2022/10/23 17:12:37;;;;;;;35.22;20.90;;;;;;;;;;6165758;28;20426;-74
2022/10/23 17:15:37;;;;;;;46.00;28.05;;;;;;;;;;6156844;28;20027;-73
2022/10/23 17:18:38;;;;;;;56.45;33.50;;;;;;;;;;6164615;28;20082;-74
2022/10/23 17:21:39;;;;;;;61.20;38.00;;;;;;;;;;6161221;28;20503;-73
2022/10/23 17:24:40;;;;;;;65.82;37.78;;;;;;;;;;6159001;28;20022;-73
2022/10/23 17:27:41;;;;;;;99.63;58.60;;;;;;;;;;6171969;28;20568;-74
2022/10/23 17:30:41;;;;;;;98.63;58.07;;;;;;;;;;6170192;28;20030;-75
2022/10/23 17:33:42;;;;;;;162.17;85.73;;;;;;;;;;6162794;28;20015;-73
2022/10/23 17:36:43;;;;;;;104.82;62.67;;;;;;;;;;6154877;28;20085;-74
2022/10/23 17:39:43;;;;;;;105.47;60.30;;;;;;;;;;6154653;28;20020;-74
2022/10/23 17:42:43;;;;;;;96.00;55.63;;;;;;;;;;6162454;28;20023;-74
2022/10/23 17:45:44;;;;;;;65.03;40.10;;;;;;;;;;6160346;28;20021;-73